createdAt,value
2018-08-31T00:01:56.050Z,60427.36
2018-08-31T00:04:36.873Z,60428.37
2018-08-31T00:07:16.400Z,60435.48
2018-08-31T00:12:14.245Z,60428.37
2018-08-31T00:14:42.410Z,60419.23
2018-08-31T00:17:10.603Z,60423.29
2018-08-31T00:19:38.782Z,60415.16
2018-08-31T00:22:07.259Z,60427.36
2018-08-31T00:24:46.845Z,60414.14
2018-08-31T00:27:26.195Z,60423.29
2018-08-31T00:30:05.800Z,60434.47
2018-08-31T00:33:11.583Z,60431.42
2018-08-31T00:36:50.507Z,60423.29
2018-08-31T00:39:33.536Z,60441.58
2018-08-31T00:43:17.951Z,60418.21
2018-08-31T00:45:46.123Z,60425.32
2018-08-31T00:48:14.310Z,60413.13
2018-08-31T00:50:42.481Z,60425.32
2018-08-31T00:53:10.706Z,60430.40
2018-08-31T00:55:38.904Z,60417.20
2018-08-31T00:58:07.080Z,60424.31
2018-08-31T01:00:35.247Z,60435.48
2018-08-31T01:03:03.439Z,60439.55
2018-08-31T01:05:31.632Z,60434.47
2018-08-31T01:07:59.828Z,60421.26
2018-08-31T01:10:28.044Z,60416.18
2018-08-31T01:12:56.279Z,60424.31
2018-08-31T01:15:24.462Z,60425.32
2018-08-31T01:17:52.647Z,60429.39
2018-08-31T01:20:20.839Z,60449.71
2018-08-31T01:22:49.040Z,60433.45
2018-08-31T01:25:17.239Z,60446.66
2018-08-31T01:27:45.434Z,60443.61
2018-08-31T01:30:13.644Z,60414.14
2018-08-31T01:32:41.831Z,60425.32
2018-08-31T01:35:10.017Z,60438.53
2018-08-31T01:37:38.194Z,60410.08
2018-08-31T01:40:06.580Z,60415.16
2018-08-31T01:42:34.884Z,60446.66
2018-08-31T01:45:03.102Z,60413.13
2018-08-31T01:47:31.300Z,60436.50
2018-08-31T01:49:59.482Z,60431.42
2018-08-31T01:52:27.663Z,60449.71
2018-08-31T01:54:55.907Z,60441.58
2018-08-31T01:57:24.104Z,60441.58
2018-08-31T01:59:52.356Z,60435.48
2018-08-31T02:02:22.542Z,60444.63
2018-08-31T02:04:50.767Z,60439.55
2018-08-31T02:07:18.953Z,60445.65
2018-08-31T02:09:47.139Z,60453.78
2018-08-31T02:12:15.355Z,60439.55
2018-08-31T02:14:43.552Z,60421.26
2018-08-31T02:17:11.743Z,60423.29
2018-08-31T02:19:39.929Z,60450.73
2018-08-31T02:22:08.141Z,60463.94
2018-08-31T02:24:36.336Z,60448.70
2018-08-31T02:27:04.534Z,60446.66
2018-08-31T02:29:32.714Z,60446.66
2018-08-31T02:32:00.914Z,60448.70
2018-08-31T02:34:29.111Z,60443.61
2018-08-31T02:36:57.316Z,60463.94
2018-08-31T02:39:25.564Z,60457.84
2018-08-31T02:41:53.667Z,60431.42
2018-08-31T02:44:21.850Z,60425.32
2018-08-31T02:46:50.036Z,60434.47
2018-08-31T02:49:18.208Z,60437.52
2018-08-31T02:51:46.378Z,60432.44
2018-08-31T02:54:14.587Z,60457.84
2018-08-31T02:56:42.763Z,60424.31
2018-08-31T02:59:10.976Z,60433.45
2018-08-31T03:01:39.144Z,60434.47
2018-08-31T03:04:07.330Z,60436.50
2018-08-31T03:06:35.502Z,60441.58
2018-08-31T03:09:05.192Z,60438.53
2018-08-31T03:11:33.424Z,60449.71
2018-08-31T03:14:01.604Z,60440.57
2018-08-31T03:16:29.800Z,60450.73
2018-08-31T03:18:57.991Z,60420.24
2018-08-31T03:21:26.249Z,60447.68
2018-08-31T03:23:54.408Z,60435.48
2018-08-31T03:26:22.597Z,60434.47
2018-08-31T03:28:50.789Z,60443.61
2018-08-31T03:31:19.056Z,60457.84
2018-08-31T03:33:47.257Z,60419.23
2018-08-31T03:36:15.422Z,60425.32
2018-08-31T03:38:43.608Z,60445.65
2018-08-31T03:41:11.818Z,60429.39
2018-08-31T03:43:40.012Z,60449.71
2018-08-31T03:46:08.203Z,60439.55
2018-08-31T03:48:36.411Z,60436.50
2018-08-31T03:51:04.629Z,60440.57
2018-08-31T03:53:32.823Z,60435.48
2018-08-31T03:56:01.016Z,60440.57
2018-08-31T03:58:29.186Z,60449.71
2018-08-31T04:00:57.364Z,60430.40
2018-08-31T04:03:25.560Z,60438.53
2018-08-31T04:05:53.735Z,60441.58
2018-08-31T04:08:22.349Z,60435.48
2018-08-31T04:10:50.529Z,60445.65
2018-08-31T04:13:18.705Z,60427.36
2018-08-31T04:15:46.883Z,60434.47
2018-08-31T04:18:15.073Z,60425.32
2018-08-31T04:20:43.292Z,60433.45
2018-08-31T04:23:11.476Z,60419.23
2018-08-31T04:25:39.656Z,60433.45
2018-08-31T04:28:07.853Z,60444.63
2018-08-31T04:30:36.033Z,60416.18
2018-08-31T04:33:04.227Z,60418.21
2018-08-31T04:35:32.433Z,60462.92
2018-08-31T04:38:00.626Z,60435.48
2018-08-31T04:40:28.811Z,60401.95
2018-08-31T04:42:57.097Z,60452.76
2018-08-31T04:45:25.188Z,60449.71
2018-08-31T04:47:53.351Z,60426.34
2018-08-31T04:50:21.593Z,60454.79
2018-08-31T04:52:49.725Z,60448.70
2018-08-31T04:55:17.910Z,60461.91
2018-08-31T04:57:46.126Z,60419.23
2018-08-31T05:00:15.196Z,60430.40
2018-08-31T05:02:43.363Z,60410.08
2018-08-31T05:05:11.527Z,60441.58
2018-08-31T05:07:39.693Z,60444.63
2018-08-31T05:10:07.885Z,60449.71
2018-08-31T05:12:36.143Z,60451.75
2018-08-31T05:15:04.396Z,60433.45
2018-08-31T05:17:32.567Z,60453.78
2018-08-31T05:20:00.730Z,60452.76
2018-08-31T05:22:28.993Z,60445.65
2018-08-31T05:24:57.150Z,60464.96
2018-08-31T05:27:25.345Z,60437.52
2018-08-31T05:29:53.504Z,60455.81
2018-08-31T05:32:21.673Z,60443.61
2018-08-31T05:34:49.891Z,60420.24
2018-08-31T05:37:18.048Z,60455.81
2018-08-31T05:39:46.206Z,60429.39
2018-08-31T05:42:14.383Z,60438.53
2018-08-31T05:44:42.555Z,60443.61
2018-08-31T05:47:10.727Z,60425.32
2018-08-31T05:49:38.912Z,60437.52
2018-08-31T05:52:07.127Z,60460.89
2018-08-31T05:54:35.295Z,60446.66
2018-08-31T05:57:03.468Z,60416.18
2018-08-31T05:59:31.642Z,60451.75
2018-08-31T06:01:59.876Z,60444.63
2018-08-31T06:04:27.999Z,60441.58
2018-08-31T06:06:56.175Z,60453.78
2018-08-31T06:09:24.335Z,60439.55
2018-08-31T06:11:52.568Z,60456.82
2018-08-31T06:14:20.687Z,60457.84
2018-08-31T06:16:48.863Z,60445.65
2018-08-31T06:19:17.030Z,60444.63
2018-08-31T06:21:45.211Z,60410.08
2018-08-31T06:24:13.379Z,60418.21
2018-08-31T06:26:41.569Z,60434.47
2018-08-31T06:29:10.043Z,60428.37
2018-08-31T06:31:38.221Z,60440.57
2018-08-31T06:34:06.625Z,60452.76
2018-08-31T06:36:34.816Z,60405.00
2018-08-31T06:39:03.068Z,60442.60
2018-08-31T06:41:31.250Z,60441.58
2018-08-31T06:43:59.406Z,60426.34
2018-08-31T06:46:27.582Z,60450.73
2018-08-31T06:48:55.759Z,60400.93
2018-08-31T06:51:23.959Z,60459.87
2018-08-31T06:53:52.152Z,60418.21
2018-08-31T06:56:20.354Z,60419.23
2018-08-31T06:58:48.536Z,60425.32
2018-08-31T07:01:16.718Z,60407.03
2018-08-31T07:03:44.958Z,60405.00
2018-08-31T07:06:13.084Z,60429.39
2018-08-31T07:08:41.264Z,60422.27
2018-08-31T07:11:09.455Z,60441.58
2018-08-31T07:13:37.656Z,60414.14
2018-08-31T07:16:05.856Z,60432.44
2018-08-31T07:18:34.048Z,60433.45
2018-08-31T07:21:02.246Z,60430.40
2018-08-31T07:23:30.625Z,60432.44
2018-08-31T07:25:58.816Z,60415.16
2018-08-31T07:28:27.015Z,60420.24
2018-08-31T07:30:55.195Z,60419.23
2018-08-31T07:33:23.383Z,60419.23
2018-08-31T07:35:51.766Z,60389.76
2018-08-31T07:38:19.896Z,60412.11
2018-08-31T07:40:48.363Z,60415.16
2018-08-31T07:43:16.551Z,60410.08
2018-08-31T07:45:44.726Z,60413.13
2018-08-31T07:48:12.908Z,60417.20
2018-08-31T07:50:41.115Z,60406.02
2018-08-31T07:53:09.401Z,60433.45
2018-08-31T07:55:37.567Z,60413.13
2018-08-31T07:58:06.132Z,60413.13
2018-08-31T08:00:34.304Z,60399.92
2018-08-31T08:03:02.483Z,60409.07
2018-08-31T08:05:30.696Z,60405.00
2018-08-31T08:07:59.758Z,60395.86
2018-08-31T08:10:27.958Z,60383.66
2018-08-31T08:12:56.146Z,60398.90
2018-08-31T08:15:24.336Z,60399.92
2018-08-31T08:17:52.533Z,60419.23
2018-08-31T08:20:20.763Z,60413.13
2018-08-31T08:22:48.995Z,60385.69
2018-08-31T08:25:17.202Z,60417.20
2018-08-31T08:27:45.688Z,60414.14
2018-08-31T08:30:13.891Z,60389.76
2018-08-31T08:32:42.099Z,60368.42
2018-08-31T08:35:10.289Z,60414.14
2018-08-31T08:37:38.471Z,60408.05
2018-08-31T08:40:06.663Z,60384.68
2018-08-31T08:42:34.989Z,60406.02
2018-08-31T08:45:03.111Z,60376.55
2018-08-31T08:47:31.294Z,60407.03
2018-08-31T08:49:59.471Z,60402.97
2018-08-31T08:52:27.693Z,60391.79
2018-08-31T08:54:56.049Z,60382.64
2018-08-31T08:57:24.237Z,60418.21
2018-08-31T08:59:52.403Z,60368.42
2018-08-31T09:02:20.574Z,60391.79
2018-08-31T09:04:48.746Z,60392.80
2018-08-31T09:07:18.142Z,60383.66
2018-08-31T09:09:47.295Z,60367.40
2018-08-31T09:12:15.522Z,60361.30
2018-08-31T09:14:43.844Z,60369.43
2018-08-31T09:17:12.029Z,60395.86
2018-08-31T09:19:40.494Z,60375.53
2018-08-31T09:22:08.678Z,60384.68
2018-08-31T09:24:36.863Z,60376.55
2018-08-31T09:27:05.179Z,60379.59
2018-08-31T09:29:33.338Z,60366.39
2018-08-31T09:32:05.689Z,60376.55
2018-08-31T09:34:33.864Z,60373.50
2018-08-31T09:37:02.040Z,60374.52
2018-08-31T09:39:30.198Z,60402.97
2018-08-31T09:41:58.375Z,60378.58
2018-08-31T09:44:26.562Z,60370.45
2018-08-31T09:46:54.744Z,60372.48
2018-08-31T09:49:22.906Z,60383.66
2018-08-31T09:51:51.096Z,60366.39
2018-08-31T09:54:19.256Z,60368.42
2018-08-31T09:56:47.439Z,60364.35
2018-08-31T09:59:15.619Z,60344.03
2018-08-31T10:01:43.783Z,60350.12
2018-08-31T10:04:11.951Z,60353.18
2018-08-31T10:06:40.122Z,60353.18
2018-08-31T10:09:09.309Z,60332.85
2018-08-31T10:11:37.545Z,60347.08
2018-08-31T10:14:05.707Z,60374.52
2018-08-31T10:16:33.893Z,60350.12
2018-08-31T10:19:02.125Z,60343.01
2018-08-31T10:21:30.294Z,60344.03
2018-08-31T10:23:58.469Z,60337.93
2018-08-31T10:26:26.649Z,60325.74
2018-08-31T10:28:54.855Z,60326.75
2018-08-31T10:31:23.027Z,60347.08
2018-08-31T10:33:51.195Z,60325.74
2018-08-31T10:36:19.366Z,60329.80
2018-08-31T10:38:47.562Z,60329.80
2018-08-31T10:41:15.759Z,60304.40
2018-08-31T10:43:43.934Z,60314.56
2018-08-31T10:46:12.179Z,60318.62
2018-08-31T10:48:40.351Z,60294.24
2018-08-31T10:51:08.695Z,60333.87
2018-08-31T10:53:36.908Z,60347.08
2018-08-31T10:56:05.071Z,60349.11
2018-08-31T10:58:33.251Z,60336.91
2018-08-31T11:01:01.694Z,60356.22
2018-08-31T11:03:29.876Z,60342.00
2018-08-31T11:05:58.052Z,60357.24
2018-08-31T11:08:26.224Z,60320.66
2018-08-31T11:10:54.411Z,60310.50
2018-08-31T11:13:22.620Z,60307.45
2018-08-31T11:15:50.820Z,60277.98
2018-08-31T11:18:19.006Z,60293.22
2018-08-31T11:20:47.191Z,60290.17
2018-08-31T11:23:15.378Z,60290.17
2018-08-31T11:25:43.571Z,60290.17
2018-08-31T11:28:11.769Z,60309.48
2018-08-31T11:30:39.940Z,60297.29
2018-08-31T11:33:08.127Z,60303.38
2018-08-31T11:35:36.324Z,60290.17
2018-08-31T11:38:04.546Z,60290.17
2018-08-31T11:40:32.718Z,60302.37
2018-08-31T11:43:00.899Z,60294.24
2018-08-31T11:45:29.085Z,60273.91
2018-08-31T11:47:57.265Z,60273.91
2018-08-31T11:50:25.452Z,60293.22
2018-08-31T11:52:53.640Z,60268.83
2018-08-31T11:55:21.884Z,60270.87
2018-08-31T11:57:49.998Z,60240.38
2018-08-31T12:00:19.027Z,60243.43
2018-08-31T12:02:47.221Z,60259.69
2018-08-31T12:05:15.383Z,60259.69
2018-08-31T12:07:43.634Z,60264.77
2018-08-31T12:10:11.770Z,60256.64
2018-08-31T12:12:39.968Z,60278.99
2018-08-31T12:15:08.168Z,60300.34
2018-08-31T12:17:36.355Z,60291.19
2018-08-31T12:20:04.548Z,60295.25
2018-08-31T12:22:32.735Z,60311.51
2018-08-31T12:25:00.916Z,60311.51
2018-08-31T12:27:29.098Z,60318.62
2018-08-31T12:29:57.291Z,60315.57
2018-08-31T12:32:25.451Z,60330.82
2018-08-31T12:34:53.609Z,60314.56
2018-08-31T12:37:22.013Z,60319.64
2018-08-31T12:39:50.384Z,60308.46
2018-08-31T12:42:18.558Z,60320.66
2018-08-31T12:44:46.776Z,60313.54
2018-08-31T12:47:14.944Z,60300.34
2018-08-31T12:49:43.121Z,60323.71
2018-08-31T12:52:11.307Z,60294.24
2018-08-31T12:54:39.488Z,60288.14
2018-08-31T12:57:07.709Z,60285.09
2018-08-31T12:59:35.928Z,60313.54
2018-08-31T13:02:04.266Z,60273.91
2018-08-31T13:04:32.439Z,60277.98
2018-08-31T13:07:00.684Z,60308.46
2018-08-31T13:09:28.814Z,60299.32
2018-08-31T13:11:56.994Z,60295.25
2018-08-31T13:14:25.191Z,60288.14
2018-08-31T13:16:53.397Z,60289.16
2018-08-31T13:19:21.665Z,60309.48
2018-08-31T13:21:49.855Z,60292.21
2018-08-31T13:24:18.034Z,60285.09
2018-08-31T13:26:46.276Z,60290.17
2018-08-31T13:29:14.472Z,60271.88
2018-08-31T13:31:42.735Z,60306.43
2018-08-31T13:34:10.898Z,60299.32
2018-08-31T13:36:40.051Z,60292.21
2018-08-31T13:39:08.922Z,60288.14
2018-08-31T13:41:37.390Z,60303.38
2018-08-31T13:44:05.794Z,60290.17
2018-08-31T13:46:34.984Z,60302.37
2018-08-31T13:49:03.596Z,60292.21
2018-08-31T13:51:31.991Z,60292.21
2018-08-31T13:54:00.276Z,60299.32
2018-08-31T13:56:28.537Z,60295.25
2018-08-31T13:58:57.015Z,60296.27
2018-08-31T14:01:26.312Z,60295.25
2018-08-31T14:03:54.516Z,60310.50
2018-08-31T14:06:23.599Z,60296.27
2018-08-31T14:08:52.071Z,60311.51
2018-08-31T14:11:20.739Z,60285.09
2018-08-31T14:13:49.511Z,60290.17
2018-08-31T14:16:17.795Z,60322.69
2018-08-31T14:18:48.109Z,60286.11
2018-08-31T14:21:16.424Z,60289.16
2018-08-31T14:23:45.546Z,60299.32
2018-08-31T14:26:13.879Z,60284.07
2018-08-31T14:28:42.851Z,60294.24
2018-08-31T14:31:11.100Z,60315.57
2018-08-31T14:33:40.056Z,60306.43
2018-08-31T14:36:08.328Z,60293.22
2018-08-31T14:38:36.684Z,60301.35
2018-08-31T14:41:04.882Z,60314.56
2018-08-31T14:43:33.142Z,60295.25
2018-08-31T14:46:01.435Z,60294.24
2018-08-31T14:48:29.643Z,60294.24
2018-08-31T14:50:57.875Z,60321.67
2018-08-31T14:53:26.220Z,60306.43
2018-08-31T14:55:54.463Z,60309.48
2018-08-31T14:58:22.708Z,60304.40
2018-08-31T15:00:52.523Z,60287.12
2018-08-31T15:03:22.065Z,60303.38
2018-08-31T15:05:50.412Z,60297.29
2018-08-31T15:08:18.562Z,60299.32
2018-08-31T15:10:46.788Z,60325.74
2018-08-31T15:13:15.107Z,60321.67
2018-08-31T15:15:44.077Z,60305.41
2018-08-31T15:18:13.514Z,60294.24
2018-08-31T15:20:41.818Z,60301.35
2018-08-31T15:23:10.006Z,60312.53
2018-08-31T15:25:38.303Z,60296.27
2018-08-31T15:28:06.445Z,60311.51
2018-08-31T15:30:34.623Z,60314.56
2018-08-31T15:33:03.113Z,60315.57
2018-08-31T15:35:31.692Z,60296.27
2018-08-31T15:38:00.576Z,60315.57
2018-08-31T15:40:28.853Z,60309.48
2018-08-31T15:42:57.777Z,60310.50
2018-08-31T15:45:26.303Z,60300.34
2018-08-31T15:47:55.219Z,60313.54
2018-08-31T15:50:23.508Z,60303.38
2018-08-31T15:52:51.602Z,60305.41
2018-08-31T15:55:19.811Z,60303.38
2018-08-31T15:57:47.951Z,60319.64
2018-08-31T16:00:16.177Z,60305.41
2018-08-31T16:02:44.348Z,60304.40
2018-08-31T16:05:12.518Z,60325.74
2018-08-31T16:07:40.698Z,60329.80
2018-08-31T16:10:09.389Z,60298.30
2018-08-31T16:12:37.610Z,60306.43
2018-08-31T16:15:06.096Z,60327.77
2018-08-31T16:17:34.864Z,60309.48
2018-08-31T16:20:03.059Z,60300.34
2018-08-31T16:22:31.240Z,60314.56
2018-08-31T16:24:59.477Z,60320.66
2018-08-31T16:27:27.652Z,60329.80
2018-08-31T16:29:55.846Z,60309.48
2018-08-31T16:32:24.082Z,60309.48
2018-08-31T16:34:52.272Z,60330.82
2018-08-31T16:37:20.446Z,60342.00
2018-08-31T16:39:48.665Z,60321.67
2018-08-31T16:42:16.868Z,60319.64
2018-08-31T16:44:45.091Z,60298.30
2018-08-31T16:47:13.281Z,60304.40
2018-08-31T16:49:41.431Z,60330.82
2018-08-31T16:52:09.691Z,60338.95
2018-08-31T16:54:37.859Z,60337.93
2018-08-31T16:57:06.328Z,60303.38
2018-08-31T16:59:34.802Z,60332.85
2018-08-31T17:02:03.149Z,60314.56
2018-08-31T17:04:31.339Z,60316.59
2018-08-31T17:06:59.496Z,60331.84
2018-08-31T17:09:27.671Z,60304.40
2018-08-31T17:11:55.847Z,60339.96
2018-08-31T17:14:24.021Z,60310.50
2018-08-31T17:16:52.220Z,60324.72
2018-08-31T17:19:20.334Z,60316.59
2018-08-31T17:21:48.502Z,60307.45
2018-08-31T17:24:16.682Z,60323.71
2018-08-31T17:26:50.092Z,60321.67
2018-08-31T17:29:23.532Z,60334.88
2018-08-31T17:31:57.075Z,60325.74
2018-08-31T17:34:30.603Z,60344.03
2018-08-31T17:37:04.017Z,60343.01
2018-08-31T17:39:32.178Z,60337.93
2018-08-31T17:42:00.349Z,60332.85
2018-08-31T17:44:28.627Z,60323.71
2018-08-31T17:46:56.795Z,60338.95
2018-08-31T17:49:25.840Z,60325.74
2018-08-31T17:51:54.016Z,60345.04
2018-08-31T17:54:22.210Z,60337.93
2018-08-31T17:56:50.398Z,60321.67
2018-08-31T17:59:18.651Z,60335.90
2018-08-31T18:01:46.905Z,60332.85
2018-08-31T18:04:15.313Z,60321.67
2018-08-31T18:06:43.348Z,60328.79
2018-08-31T18:09:11.547Z,60350.12
2018-08-31T18:11:39.702Z,60356.22
2018-08-31T18:14:07.871Z,60346.06
2018-08-31T18:16:36.235Z,60337.93
2018-08-31T18:19:04.232Z,60342.00
2018-08-31T18:21:32.403Z,60339.96
2018-08-31T18:24:00.597Z,60337.93
2018-08-31T18:26:28.783Z,60343.01
2018-08-31T18:28:56.959Z,60339.96
2018-08-31T18:31:25.147Z,60339.96
2018-08-31T18:33:53.323Z,60338.95
2018-08-31T18:36:21.500Z,60351.14
2018-08-31T18:38:49.682Z,60340.98
2018-08-31T18:41:17.863Z,60374.52
2018-08-31T18:43:46.050Z,60370.45
2018-08-31T18:46:14.268Z,60349.11
2018-08-31T18:48:42.467Z,60379.59
2018-08-31T18:51:10.771Z,60371.46
2018-08-31T18:53:39.020Z,60369.43
2018-08-31T18:56:08.485Z,60366.39
2018-08-31T18:58:36.700Z,60382.64
2018-08-31T19:01:04.892Z,60368.42
2018-08-31T19:03:33.059Z,60386.71
2018-08-31T19:06:01.243Z,60372.48
2018-08-31T19:08:29.415Z,60373.50
2018-08-31T19:10:57.582Z,60370.45
2018-08-31T19:13:25.768Z,60378.58
2018-08-31T19:15:53.964Z,60366.39
2018-08-31T19:18:22.172Z,60374.52
2018-08-31T19:20:50.371Z,60348.09
2018-08-31T19:23:18.590Z,60380.61
2018-08-31T19:25:46.775Z,60364.35
2018-08-31T19:28:14.966Z,60342.00
2018-08-31T19:30:43.162Z,60365.37
2018-08-31T19:33:11.346Z,60381.63
2018-08-31T19:35:39.536Z,60370.45
2018-08-31T19:38:07.747Z,60385.69
2018-08-31T19:40:35.955Z,60354.19
2018-08-31T19:43:04.132Z,60394.84
2018-08-31T19:45:32.318Z,60352.16
2018-08-31T19:48:00.585Z,60350.12
2018-08-31T19:50:28.801Z,60362.32
2018-08-31T19:52:57.333Z,60372.48
2018-08-31T19:55:25.803Z,60387.72
2018-08-31T19:57:53.948Z,60367.40
2018-08-31T20:00:22.334Z,60374.52
2018-08-31T20:02:50.515Z,60396.87
2018-08-31T20:05:18.764Z,60382.64
2018-08-31T20:07:46.943Z,60373.50
2018-08-31T20:10:15.110Z,60384.68
2018-08-31T20:12:43.308Z,60394.84
2018-08-31T20:15:11.510Z,60381.63
2018-08-31T20:17:39.688Z,60381.63
2018-08-31T20:20:07.899Z,60373.50
2018-08-31T20:22:36.087Z,60365.37
2018-08-31T20:25:04.442Z,60382.64
2018-08-31T20:27:32.636Z,60405.00
2018-08-31T20:30:00.822Z,60386.71
2018-08-31T20:32:29.054Z,60395.86
2018-08-31T20:34:57.255Z,60382.64
2018-08-31T20:37:25.440Z,60373.50
2018-08-31T20:39:53.673Z,60386.71
2018-08-31T20:42:21.844Z,60394.84
2018-08-31T20:44:50.023Z,60382.64
2018-08-31T20:47:18.280Z,60405.00
2018-08-31T20:49:46.403Z,60387.72
2018-08-31T20:52:14.610Z,60391.79
2018-08-31T20:54:42.804Z,60389.76
2018-08-31T20:57:10.988Z,60392.80
2018-08-31T20:59:39.167Z,60403.98
2018-08-31T21:02:07.368Z,60406.02
2018-08-31T21:04:35.532Z,60399.92
2018-08-31T21:07:03.727Z,60406.02
2018-08-31T21:09:31.903Z,60405.00
2018-08-31T21:12:00.091Z,60389.76
2018-08-31T21:14:28.351Z,60392.80
2018-08-31T21:16:56.516Z,60412.11
2018-08-31T21:19:25.086Z,60408.05
2018-08-31T21:21:53.277Z,60375.53
2018-08-31T21:24:21.457Z,60370.45
2018-08-31T21:26:49.627Z,60399.92
2018-08-31T21:29:17.798Z,60391.79
2018-08-31T21:31:45.999Z,60394.84
2018-08-31T21:34:14.164Z,60390.77
2018-08-31T21:36:42.450Z,60434.47
2018-08-31T21:39:10.783Z,60403.98
2018-08-31T21:41:39.229Z,60377.56
2018-08-31T21:44:07.459Z,60387.72
2018-08-31T21:46:35.650Z,60405.00
2018-08-31T21:49:03.940Z,60408.05
2018-08-31T21:51:32.109Z,60389.76
2018-08-31T21:54:00.307Z,60426.34
2018-08-31T21:56:28.513Z,60388.74
2018-08-31T21:58:56.711Z,60382.64
2018-08-31T22:01:30.195Z,60422.27
2018-08-31T22:03:58.379Z,60387.72
2018-08-31T22:06:26.583Z,60408.05
2018-08-31T22:08:54.784Z,60392.80
2018-08-31T22:11:22.957Z,60396.87
2018-08-31T22:13:51.146Z,60415.16
2018-08-31T22:16:19.346Z,60412.11
2018-08-31T22:18:47.521Z,60387.72
2018-08-31T22:21:15.711Z,60394.84
2018-08-31T22:23:43.895Z,60397.89
2018-08-31T22:26:12.315Z,60390.77
2018-08-31T22:28:40.510Z,60405.00
2018-08-31T22:31:08.680Z,60374.52
2018-08-31T22:33:36.914Z,60420.24
2018-08-31T22:36:05.091Z,60400.93
2018-08-31T22:38:33.283Z,60392.80
2018-08-31T22:41:01.447Z,60418.21
2018-08-31T22:43:35.063Z,60389.76
2018-08-31T22:46:03.162Z,60399.92
2018-08-31T22:48:31.360Z,60426.34
2018-08-31T22:50:59.563Z,60416.18
2018-08-31T22:53:27.811Z,60409.07
2018-08-31T22:55:56.026Z,60422.27
2018-08-31T22:58:24.224Z,60405.00
2018-08-31T23:00:52.395Z,60420.24
2018-08-31T23:03:20.583Z,60407.03
2018-08-31T23:05:48.771Z,60410.08
2018-08-31T23:08:17.605Z,60424.31
2018-08-31T23:10:45.784Z,60403.98
2018-08-31T23:13:14.105Z,60439.55
2018-08-31T23:15:42.206Z,60435.48
2018-08-31T23:18:10.384Z,60433.45
2018-08-31T23:20:38.571Z,60424.31
2018-08-31T23:23:11.999Z,60422.27
2018-08-31T23:25:45.475Z,60432.44
2018-08-31T23:28:13.651Z,60426.34
2018-08-31T23:30:41.822Z,60431.42
